Time;durP1;ratioP1;P1;durP2;ratioP2;P2;SDS_P1;SDS_P2;PMS_P1;PMS_P2;Temp;Humidity;BMP_temperature;BMP_pressure;BME280_temperature;BME280_humidity;BME280_pressure;Samples;Min_cycle;Max_cycle;Signal;HPM_P1;HPM_P2
2024/04/17 00:01:52;;;;;;;0.15;0.15;;;7.40;1.00;;;;;;5405307;26;20047;-84
2024/04/17 00:04:18;;;;;;;0.10;0.10;;;7.40;1.00;;;;;;5419535;26;20032;-84
2024/04/17 00:06:44;;;;;;;0.10;0.10;;;7.40;1.00;;;;;;5431589;26;20032;-85
2024/04/17 00:09:11;;;;;;;0.50;0.40;;;7.40;1.00;;;;;;5414867;26;20031;-85
2024/04/17 00:11:37;;;;;;;0.20;0.20;;;7.30;1.00;;;;;;5416767;26;20043;-84
2024/04/17 00:14:03;;;;;;;0.10;0.10;;;7.30;1.00;;;;;;5381141;26;20044;-85
2024/04/17 00:16:29;;;;;;;0.32;0.25;;;7.30;1.00;;;;;;5412938;26;20035;-84
2024/04/17 00:18:55;;;;;;;0.55;0.55;;;7.20;1.00;;;;;;5400591;26;20039;-85
2024/04/17 00:21:21;;;;;;;0.10;0.10;;;7.30;4.70;;;;;;5407039;26;20035;-87
2024/04/17 00:23:48;;;;;;;0.35;0.30;;;7.20;1.00;;;;;;5432197;26;20375;-85
2024/04/17 00:26:14;;;;;;;0.32;0.32;;;7.20;1.00;;;;;;5424383;26;20036;-86
2024/04/17 00:28:40;;;;;;;0.10;0.10;;;7.10;1.00;;;;;;5405840;26;20043;-87
2024/04/17 00:31:06;;;;;;;0.30;0.30;;;7.10;1.00;;;;;;5401907;26;20035;-86
2024/04/17 00:33:32;;;;;;;0.20;0.20;;;7.00;1.00;;;;;;5425720;26;20034;-85
2024/04/17 00:35:58;;;;;;;0.20;0.20;;;7.00;1.00;;;;;;5432091;26;20483;-85
2024/04/17 00:38:24;;;;;;;1.50;0.38;;;7.00;3.30;;;;;;5406678;26;20030;-85
2024/04/17 00:40:51;;;;;;;0.40;0.40;;;7.00;17.50;;;;;;5408984;26;20496;-86
2024/04/17 00:43:17;;;;;;;0.82;0.63;;;7.10;53.90;;;;;;5405836;26;20047;-85
2024/04/17 00:45:46;;;;;;;0.63;0.50;;;7.10;39.50;;;;;;5398458;26;20055;-84
2024/04/17 00:48:13;;;;;;;0.20;0.20;;;7.20;45.50;;;;;;5430614;26;20035;-84
2024/04/17 00:50:51;;;;;;;0.45;0.40;;;7.20;8.00;;;;;;5385489;26;20038;-84
2024/04/17 00:53:26;;;;;;;0.30;0.30;;;7.10;1.00;;;;;;5398127;26;20030;-84
2024/04/17 00:55:54;;;;;;;0.15;0.15;;;7.10;1.00;;;;;;5428347;26;20028;-85
2024/04/17 00:58:21;;;;;;;0.30;0.30;;;7.10;7.40;;;;;;5402265;26;20027;-84
2024/04/17 01:00:48;;;;;;;0.30;0.30;;;7.10;16.60;;;;;;5434085;26;20047;-84
2024/04/17 01:03:14;;;;;;;0.22;0.22;;;7.10;9.50;;;;;;5430585;26;20035;-84
2024/04/17 01:05:41;;;;;;;0.10;0.10;;;7.10;16.10;;;;;;5397353;26;20028;-84
2024/04/17 01:08:07;;;;;;;0.17;0.17;;;7.10;23.20;;;;;;5404424;26;20030;-84
2024/04/17 01:10:34;;;;;;;0.50;0.43;;;7.10;1.00;;;;;;5424357;26;20038;-84
2024/04/17 01:13:00;;;;;;;0.28;0.28;;;7.00;1.00;;;;;;5433178;26;20024;-83
2024/04/17 01:15:26;;;;;;;0.10;0.10;;;7.10;1.00;;;;;;5424474;26;20028;-83
2024/04/17 01:17:54;;;;;;;0.30;0.30;;;7.00;1.00;;;;;;5422705;26;20031;-83
2024/04/17 01:20:20;;;;;;;0.20;0.20;;;6.90;1.00;;;;;;5397172;26;20036;-83
2024/04/17 01:22:46;;;;;;;0.30;0.30;;;6.90;1.00;;;;;;5407858;26;20039;-86
2024/04/17 01:25:12;;;;;;;0.20;0.20;;;6.90;1.00;;;;;;5430032;26;20047;-84
2024/04/17 01:27:40;;;;;;;0.43;0.43;;;6.90;1.00;;;;;;5431263;26;20377;-86
2024/04/17 01:30:08;;;;;;;0.30;0.30;;;6.90;1.00;;;;;;5430852;26;20034;-86
2024/04/17 01:32:34;;;;;;;0.17;0.17;;;6.90;1.00;;;;;;5411575;26;20033;-83
2024/04/17 01:35:00;;;;;;;0.38;0.38;;;6.90;1.00;;;;;;5409247;26;20035;-82
2024/04/17 01:37:26;;;;;;;0.10;0.10;;;6.90;1.00;;;;;;5430383;26;20371;-82
2024/04/17 01:39:52;;;;;;;0.57;0.57;;;6.90;1.00;;;;;;5412882;26;20032;-82
2024/04/17 01:42:18;;;;;;;0.10;0.10;;;6.80;1.00;;;;;;5427061;26;20027;-83
2024/04/17 01:44:44;;;;;;;0.57;0.50;;;6.90;1.00;;;;;;5365701;26;20039;-83
2024/04/17 01:47:11;;;;;;;0.20;0.20;;;6.80;1.00;;;;;;5411708;26;20027;-83
2024/04/17 01:49:37;;;;;;;0.20;0.20;;;6.90;1.00;;;;;;5444800;26;20037;-83
2024/04/17 01:52:03;;;;;;;0.30;0.30;;;6.80;1.00;;;;;;5417524;26;20031;-83
2024/04/17 01:54:30;;;;;;;0.55;0.52;;;6.80;1.00;;;;;;5413439;26;20035;-83
2024/04/17 01:56:56;;;;;;;0.20;0.20;;;6.80;1.00;;;;;;5429973;26;20027;-84
2024/04/17 01:59:22;;;;;;;0.28;0.25;;;6.70;1.00;;;;;;5417898;26;20043;-84
2024/04/17 02:01:48;;;;;;;1.65;0.52;;;6.70;1.00;;;;;;5423144;26;20034;-83
2024/04/17 02:04:14;;;;;;;0.30;0.30;;;6.70;1.50;;;;;;5425441;26;20015;-84
2024/04/17 02:06:40;;;;;;;0.32;0.30;;;6.60;1.00;;;;;;5392582;26;20071;-83
2024/04/17 02:09:06;;;;;;;0.20;0.20;;;6.60;16.70;;;;;;5407398;26;20031;-82
2024/04/17 02:11:32;;;;;;;0.63;0.63;;;6.60;22.50;;;;;;5388619;26;20030;-82
2024/04/17 02:13:59;;;;;;;0.43;0.43;;;6.60;11.70;;;;;;5438192;26;20548;-82
2024/04/17 02:16:25;;;;;;;0.98;0.95;;;6.60;4.30;;;;;;5412432;26;20036;-82
2024/04/17 02:18:51;;;;;;;0.25;0.25;;;6.60;1.00;;;;;;5437461;26;20034;-81
2024/04/17 02:21:17;;;;;;;0.65;0.47;;;6.60;1.00;;;;;;5414797;26;20031;-82
2024/04/17 02:23:47;;;;;;;0.35;0.35;;;6.60;1.00;;;;;;5417933;26;20507;-82
2024/04/17 02:26:13;;;;;;;0.10;0.10;;;6.60;5.40;;;;;;5400394;26;20031;-82
2024/04/17 02:28:39;;;;;;;0.38;0.38;;;6.50;9.10;;;;;;5404681;26;20046;-81
2024/04/17 02:31:05;;;;;;;0.47;0.47;;;6.50;2.30;;;;;;5392700;26;20365;-81
2024/04/17 02:33:33;;;;;;;0.15;0.15;;;6.40;1.00;;;;;;5411227;26;20043;-80
2024/04/17 02:35:59;;;;;;;0.30;0.30;;;6.30;1.00;;;;;;5402963;26;20034;-80
2024/04/17 02:38:25;;;;;;;1.63;0.52;;;6.40;9.80;;;;;;5431824;26;20031;-81
2024/04/17 02:40:51;;;;;;;0.10;0.10;;;6.40;4.10;;;;;;5382440;26;20031;-80
2024/04/17 02:43:17;;;;;;;0.98;0.93;;;6.30;6.40;;;;;;5434192;26;20031;-81
2024/04/17 02:45:43;;;;;;;0.30;0.30;;;6.30;18.00;;;;;;5436285;26;20043;-81
2024/04/17 02:48:09;;;;;;;0.10;0.10;;;6.30;18.70;;;;;;5405976;26;20043;-81
2024/04/17 02:50:39;;;;;;;0.10;0.10;;;6.30;44.60;;;;;;5427422;26;20026;-80
2024/04/17 02:53:06;;;;;;;0.50;0.50;;;6.30;53.30;;;;;;5430625;26;20028;-80
2024/04/17 02:55:32;;;;;;;0.13;0.13;;;6.30;56.20;;;;;;5412785;26;20283;-81
2024/04/17 02:57:58;;;;;;;0.22;0.22;;;6.20;71.90;;;;;;5432922;26;20039;-80
2024/04/17 03:00:26;;;;;;;1.88;0.75;;;6.20;94.10;;;;;;5365774;26;20031;-79
2024/04/17 03:02:52;;;;;;;0.10;0.10;;;6.20;99.90;;;;;;5398544;26;20030;-80
2024/04/17 03:05:18;;;;;;;0.20;0.20;;;6.20;99.90;;;;;;5435175;26;20039;-81
2024/04/17 03:07:44;;;;;;;0.30;0.30;;;6.20;99.90;;;;;;5398528;26;20202;-80
2024/04/17 03:10:11;;;;;;;0.68;0.68;;;6.10;99.90;;;;;;5406160;26;20047;-80
2024/04/17 03:12:37;;;;;;;0.20;0.20;;;6.10;99.90;;;;;;5382505;26;20040;-80
2024/04/17 03:15:06;;;;;;;0.10;0.10;;;6.10;99.90;;;;;;5416294;26;20047;-80
2024/04/17 03:17:33;;;;;;;1.45;0.73;;;6.10;99.90;;;;;;5381317;26;20047;-80
2024/04/17 03:19:59;;;;;;;0.63;0.50;;;6.10;99.90;;;;;;5385243;26;20031;-79
2024/04/17 03:22:25;;;;;;;0.20;0.20;;;6.10;99.90;;;;;;5395262;26;20040;-81
2024/04/17 03:24:51;;;;;;;0.35;0.35;;;6.10;99.90;;;;;;5383372;26;20035;-81
2024/04/17 03:27:18;;;;;;;0.13;0.13;;;6.00;99.90;;;;;;5432437;26;20032;-80
2024/04/17 03:29:44;;;;;;;0.20;0.20;;;6.10;99.90;;;;;;5396136;26;20035;-78
2024/04/17 03:32:11;;;;;;;0.40;0.40;;;6.10;99.90;;;;;;5403838;26;20039;-80
2024/04/17 03:34:37;;;;;;;0.43;0.43;;;6.10;99.90;;;;;;5433487;26;20039;-80
2024/04/17 03:37:03;;;;;;;0.30;0.30;;;6.10;99.90;;;;;;5402118;26;20044;-79
2024/04/17 03:39:29;;;;;;;0.20;0.20;;;6.10;99.90;;;;;;5402532;26;20032;-79
2024/04/17 03:41:55;;;;;;;0.25;0.25;;;6.10;99.90;;;;;;5430557;26;20659;-79
2024/04/17 03:44:22;;;;;;;0.20;0.20;;;6.00;99.90;;;;;;5395867;26;20035;-80
2024/04/17 03:46:49;;;;;;;6.43;0.47;;;6.00;99.90;;;;;;5426080;26;20031;-79
2024/04/17 03:49:15;;;;;;;0.77;0.60;;;6.10;99.90;;;;;;5396241;26;20031;-80
2024/04/17 03:51:41;;;;;;;0.30;0.30;;;6.10;99.90;;;;;;5425373;26;20049;-79
2024/04/17 03:54:07;;;;;;;1.35;1.20;;;6.00;99.90;;;;;;5408596;26;20031;-79
2024/04/17 03:56:34;;;;;;;1.65;0.93;;;6.00;99.90;;;;;;5415226;26;20028;-75
2024/04/17 03:59:00;;;;;;;0.65;0.43;;;6.00;99.90;;;;;;5401171;26;20030;-80
2024/04/17 04:01:26;;;;;;;0.15;0.15;;;6.00;99.90;;;;;;5405290;26;20030;-80
2024/04/17 04:03:52;;;;;;;0.55;0.40;;;5.90;99.90;;;;;;5433797;26;20034;-80
2024/04/17 04:06:18;;;;;;;0.77;0.77;;;6.00;99.90;;;;;;5377868;26;20031;-79
2024/04/17 04:08:44;;;;;;;0.20;0.20;;;6.00;99.90;;;;;;5381531;26;20034;-79
2024/04/17 04:11:10;;;;;;;0.25;0.25;;;6.00;99.90;;;;;;5424819;26;20039;-80
2024/04/17 04:13:37;;;;;;;0.17;0.17;;;6.00;99.90;;;;;;5433294;26;20223;-79
2024/04/17 04:16:03;;;;;;;8.35;0.75;;;5.90;99.90;;;;;;5426074;26;20027;-78
2024/04/17 04:18:29;;;;;;;1.63;0.85;;;5.90;99.90;;;;;;5413624;26;20035;-80
2024/04/17 04:20:56;;;;;;;0.40;0.40;;;5.90;99.90;;;;;;5408338;26;20389;-79
2024/04/17 04:23:22;;;;;;;0.70;0.63;;;5.90;99.90;;;;;;5407165;26;20047;-79
2024/04/17 04:25:48;;;;;;;0.40;0.40;;;5.90;99.90;;;;;;5423183;26;20386;-79
2024/04/17 04:28:14;;;;;;;0.57;0.57;;;5.90;99.90;;;;;;5430833;26;20385;-80
2024/04/17 04:30:41;;;;;;;0.10;0.10;;;5.90;99.90;;;;;;5408374;26;20364;-80
2024/04/17 04:33:08;;;;;;;0.20;0.20;;;6.00;99.90;;;;;;5399552;26;20018;-79
2024/04/17 04:35:35;;;;;;;0.30;0.30;;;6.00;99.90;;;;;;5401570;26;20039;-79
2024/04/17 04:38:01;;;;;;;0.77;0.77;;;6.10;99.90;;;;;;5390853;26;20508;-79
2024/04/17 04:40:27;;;;;;;0.40;0.40;;;6.00;99.90;;;;;;5377744;26;20031;-80
2024/04/17 04:42:53;;;;;;;0.28;0.28;;;6.00;99.90;;;;;;5427497;26;20035;-79
2024/04/17 04:45:19;;;;;;;2.67;1.70;;;6.00;99.90;;;;;;5413815;26;20031;-80
2024/04/17 04:47:45;;;;;;;0.45;0.43;;;6.10;99.90;;;;;;5393366;26;20020;-79
2024/04/17 04:50:12;;;;;;;0.47;0.43;;;6.10;99.90;;;;;;5427459;26;20026;-80
2024/04/17 04:52:38;;;;;;;0.52;0.52;;;6.10;99.90;;;;;;5424786;26;20050;-80
2024/04/17 04:55:07;;;;;;;0.32;0.32;;;6.10;99.90;;;;;;5407878;26;20031;-80
2024/04/17 04:57:33;;;;;;;1.13;0.82;;;6.20;99.90;;;;;;5380447;26;20027;-79
2024/04/17 05:00:00;;;;;;;0.57;0.45;;;6.10;99.90;;;;;;5409137;26;20036;-81
2024/04/17 05:02:26;;;;;;;0.95;0.90;;;6.10;99.90;;;;;;5430389;26;20031;-84
2024/04/17 05:04:52;;;;;;;1.55;1.33;;;6.10;99.90;;;;;;5413027;26;20378;-82
2024/04/17 05:07:18;;;;;;;0.63;0.63;;;6.10;99.90;;;;;;5435648;26;20384;-81
2024/04/17 05:09:44;;;;;;;1.00;0.90;;;6.10;99.90;;;;;;5408507;26;20059;-81
2024/04/17 05:12:10;;;;;;;0.10;0.10;;;6.20;99.90;;;;;;5374142;26;20008;-77
2024/04/17 05:14:37;;;;;;;2.33;1.77;;;6.20;99.90;;;;;;5408239;26;20046;-78
2024/04/17 05:17:03;;;;;;;0.90;0.57;;;6.20;99.90;;;;;;5405522;26;20055;-81
2024/04/17 05:19:29;;;;;;;0.30;0.30;;;6.20;99.90;;;;;;5373659;26;20051;-80
2024/04/17 05:21:56;;;;;;;1.85;1.40;;;6.20;99.90;;;;;;5343117;26;20048;-81
2024/04/17 05:24:22;;;;;;;1.20;1.13;;;6.30;99.90;;;;;;5343188;26;20433;-80
2024/04/17 05:26:48;;;;;;;0.47;0.47;;;6.30;99.90;;;;;;5335372;26;20039;-81
2024/04/17 05:29:14;;;;;;;0.77;0.77;;;6.30;99.90;;;;;;5339564;26;20047;-81
2024/04/17 05:31:40;;;;;;;0.57;0.57;;;6.40;99.90;;;;;;5349775;26;20192;-80
2024/04/17 05:34:06;;;;;;;2.28;0.73;;;6.40;99.90;;;;;;5349723;26;20378;-81
2024/04/17 05:36:33;;;;;;;0.70;0.70;;;6.40;99.90;;;;;;5339886;26;20639;-81
2024/04/17 05:38:59;;;;;;;3.33;1.13;;;6.40;99.90;;;;;;5340604;26;20039;-79
2024/04/17 05:41:25;;;;;;;0.52;0.52;;;6.50;99.90;;;;;;5423825;26;20031;-82
2024/04/17 05:43:51;;;;;;;2.83;1.98;;;6.50;99.90;;;;;;5410141;26;20036;-80
2024/04/17 05:46:18;;;;;;;0.30;0.30;;;6.50;90.60;;;;;;5428390;26;20042;-84
2024/04/17 05:48:44;;;;;;;0.73;0.63;;;6.40;31.30;;;;;;5412197;26;20035;-82
2024/04/17 05:51:10;;;;;;;0.38;0.38;;;6.50;29.40;;;;;;5370244;26;20465;-82
2024/04/17 05:53:36;;;;;;;0.57;0.57;;;6.50;27.00;;;;;;5413329;26;20023;-84
2024/04/17 05:56:02;;;;;;;1.33;1.00;;;6.60;19.10;;;;;;5415395;26;20028;-83
2024/04/17 05:58:29;;;;;;;0.88;0.85;;;6.60;16.00;;;;;;5416195;26;20519;-84
2024/04/17 06:00:55;;;;;;;0.17;0.17;;;6.60;1.00;;;;;;5403771;26;20035;-85
2024/04/17 06:03:21;;;;;;;0.82;0.55;;;6.60;1.00;;;;;;5411606;26;20031;-82
2024/04/17 06:05:47;;;;;;;1.08;0.93;;;6.70;1.00;;;;;;5437639;26;20381;-83
2024/04/17 06:08:13;;;;;;;0.57;0.57;;;6.60;1.00;;;;;;5437558;26;20035;-83
2024/04/17 06:10:40;;;;;;;0.55;0.55;;;6.70;1.00;;;;;;5401326;26;20044;-82
2024/04/17 06:13:06;;;;;;;0.73;0.65;;;6.80;1.00;;;;;;5399957;26;20034;-85
2024/04/17 06:15:35;;;;;;;0.35;0.35;;;6.80;1.00;;;;;;5441815;26;20043;-83
2024/04/17 06:18:06;;;;;;;0.20;0.20;;;6.90;1.00;;;;;;5413584;26;20035;-84
2024/04/17 06:20:33;;;;;;;1.17;1.08;;;6.80;1.00;;;;;;5446560;26;20031;-84
2024/04/17 06:23:02;;;;;;;0.40;0.40;;;6.90;1.00;;;;;;5415945;26;20009;-82
2024/04/17 06:25:28;;;;;;;0.90;0.90;;;6.90;1.00;;;;;;5445154;26;20031;-86
2024/04/17 06:27:54;;;;;;;0.50;0.47;;;6.90;1.00;;;;;;5437070;26;20376;-85
2024/04/17 06:30:20;;;;;;;3.15;1.33;;;6.90;99.90;;;;;;5422162;26;20107;-82
2024/04/17 06:32:47;;;;;;;0.90;0.88;;;7.00;99.90;;;;;;5387281;26;20039;-85
2024/04/17 06:35:13;;;;;;;1.15;0.73;;;7.00;1.00;;;;;;5431547;26;20407;-86
2024/04/17 06:37:39;;;;;;;1.05;0.75;;;7.10;99.90;;;;;;5388401;26;20039;-86
2024/04/17 06:40:06;;;;;;;1.10;0.85;;;7.10;99.90;;;;;;5409216;26;20032;-88
2024/04/17 06:42:32;;;;;;;0.50;0.50;;;7.10;99.90;;;;;;5413589;26;20372;-92
2024/04/17 06:45:01;;;;;;;0.43;0.40;;;7.10;99.90;;;;;;5388795;26;20476;-81
2024/04/17 06:47:27;;;;;;;0.20;0.20;;;7.20;99.90;;;;;;5431214;26;20527;-85
2024/04/17 06:49:54;;;;;;;6.15;1.20;;;7.30;99.90;;;;;;5417396;26;20030;-83
2024/04/17 06:52:20;;;;;;;0.63;0.35;;;7.30;99.90;;;;;;5382756;26;20043;-86
2024/04/17 06:54:46;;;;;;;0.45;0.45;;;7.40;99.90;;;;;;5428299;26;20032;-83
2024/04/17 06:57:13;;;;;;;0.70;0.70;;;7.40;99.90;;;;;;5417631;26;20042;-88
2024/04/17 06:59:39;;;;;;;0.20;0.20;;;7.40;99.90;;;;;;5401300;26;20028;-82
2024/04/17 07:02:05;;;;;;;1.08;0.35;;;7.40;99.90;;;;;;5451732;26;20031;-86
2024/04/17 07:04:32;;;;;;;0.47;0.47;;;7.40;99.90;;;;;;5456718;26;20016;-82
2024/04/17 07:06:58;;;;;;;0.57;0.57;;;7.40;43.30;;;;;;5432177;26;19999;-80
2024/04/17 07:09:24;;;;;;;0.10;0.10;;;7.40;6.90;;;;;;5425204;26;20449;-82
2024/04/17 07:11:50;;;;;;;0.30;0.30;;;7.50;1.00;;;;;;5408854;26;20503;-82
2024/04/17 07:14:16;;;;;;;0.60;0.60;;;7.50;1.00;;;;;;5454101;26;19924;-83
2024/04/17 07:16:43;;;;;;;0.55;0.55;;;7.40;1.00;;;;;;5442064;26;20007;-81
2024/04/17 07:19:09;;;;;;;1.55;0.65;;;7.50;1.00;;;;;;5415372;26;20013;-83
2024/04/17 07:21:37;;;;;;;0.47;0.47;;;7.50;1.00;;;;;;5448305;26;20000;-81
2024/04/17 07:24:04;;;;;;;0.22;0.22;;;7.50;1.00;;;;;;5445060;26;20000;-80
2024/04/17 07:26:30;;;;;;;15.90;0.82;;;7.70;1.00;;;;;;5421063;26;20031;-81
2024/04/17 07:28:56;;;;;;;0.50;0.50;;;7.70;1.00;;;;;;5433002;26;20034;-82
2024/04/17 07:31:22;;;;;;;0.73;0.73;;;7.70;1.00;;;;;;5418655;26;20043;-82
2024/04/17 07:33:49;;;;;;;0.10;0.10;;;7.70;1.00;;;;;;5431507;26;20031;-81
2024/04/17 07:36:15;;;;;;;0.47;0.47;;;7.70;99.90;;;;;;5405183;26;20034;-81
2024/04/17 07:38:44;;;;;;;1.25;0.70;;;7.60;99.90;;;;;;5400471;26;20034;-78
2024/04/17 07:41:10;;;;;;;0.17;0.17;;;7.70;99.90;;;;;;5409633;26;20039;-81
2024/04/17 07:43:37;;;;;;;2.28;1.17;;;7.90;99.90;;;;;;5402701;26;20042;-83
2024/04/17 07:46:03;;;;;;;0.15;0.15;;;8.00;99.90;;;;;;5429737;26;20031;-82
2024/04/17 07:48:29;;;;;;;0.10;0.10;;;8.10;99.90;;;;;;5412626;26;20047;-82
2024/04/17 07:50:56;;;;;;;0.17;0.17;;;8.10;99.90;;;;;;5428475;26;20031;-80
2024/04/17 07:53:22;;;;;;;9.85;0.55;;;8.10;99.90;;;;;;5411430;26;20039;-79
2024/04/17 07:55:48;;;;;;;0.88;0.88;;;8.00;99.90;;;;;;5429709;26;20047;-79
2024/04/17 07:58:14;;;;;;;0.20;0.20;;;7.90;99.90;;;;;;5434912;26;20048;-82
2024/04/17 08:00:41;;;;;;;0.20;0.20;;;8.00;99.90;;;;;;5408697;26;20161;-80
2024/04/17 08:03:09;;;;;;;0.25;0.25;;;8.00;99.90;;;;;;5429272;26;20040;-83
2024/04/17 08:05:35;;;;;;;0.10;0.10;;;8.10;99.90;;;;;;5416794;26;20050;-81
2024/04/17 08:08:01;;;;;;;0.25;0.25;;;8.70;99.90;;;;;;5427174;26;20039;-80
2024/04/17 08:10:27;;;;;;;0.47;0.47;;;8.70;99.90;;;;;;5425382;26;20031;-81
2024/04/17 08:13:11;;;;;;;0.75;0.73;;;8.70;99.90;;;;;;5428410;26;20075;-79
2024/04/17 08:15:44;;;;;;;1.02;1.00;;;8.80;99.90;;;;;;5393221;26;20074;-79
2024/04/17 08:18:11;;;;;;;0.15;0.15;;;9.00;96.50;;;;;;5422508;26;20044;-81
2024/04/17 08:20:38;;;;;;;0.20;0.20;;;9.10;63.30;;;;;;5427514;26;20040;-80
2024/04/17 08:23:04;;;;;;;0.30;0.30;;;9.00;12.70;;;;;;5410558;26;20035;-81
2024/04/17 08:25:30;;;;;;;0.20;0.20;;;8.90;19.40;;;;;;5413876;26;20035;-80
2024/04/17 08:27:57;;;;;;;0.40;0.40;;;8.90;12.50;;;;;;5428606;26;20043;-81
2024/04/17 08:30:23;;;;;;;0.30;0.30;;;9.10;1.00;;;;;;5430751;26;20033;-78
2024/04/17 08:32:49;;;;;;;1.35;0.90;;;9.00;1.00;;;;;;5420835;26;20371;-82
2024/04/17 08:35:15;;;;;;;0.22;0.22;;;9.30;1.00;;;;;;5431760;26;20040;-83
2024/04/17 08:37:43;;;;;;;3.50;0.63;;;10.10;1.00;;;;;;5414687;26;20035;-80
2024/04/17 08:40:12;;;;;;;0.20;0.20;;;10.90;99.90;;;;;;5437823;26;20036;-83
2024/04/17 08:42:41;;;;;;;0.20;0.20;;;10.30;99.90;;;;;;5427418;26;20590;-83
2024/04/17 08:45:09;;;;;;;0.57;0.57;;;10.00;99.90;;;;;;5440120;26;20026;-80
2024/04/17 08:47:36;;;;;;;0.20;0.20;;;9.60;99.90;;;;;;5428917;26;20027;-80
2024/04/17 08:50:04;;;;;;;0.22;0.22;;;9.60;99.90;;;;;;5428071;26;20043;-81
2024/04/17 08:52:32;;;;;;;0.60;0.60;;;9.30;99.90;;;;;;5405251;26;21863;-79
2024/04/17 08:54:58;;;;;;;0.10;0.10;;;9.60;99.90;;;;;;5430235;26;20034;-81
2024/04/17 08:57:24;;;;;;;0.35;0.35;;;9.60;99.90;;;;;;5429298;26;20028;-81
2024/04/17 08:59:51;;;;;;;0.93;0.93;;;10.00;99.90;;;;;;5428345;26;20291;-81
2024/04/17 09:02:17;;;;;;;0.90;0.63;;;9.80;99.90;;;;;;5436749;26;20030;-81
2024/04/17 09:04:44;;;;;;;0.30;0.30;;;9.80;99.90;;;;;;5431408;26;20042;-81
2024/04/17 09:07:11;;;;;;;0.10;0.10;;;9.70;99.90;;;;;;5432556;26;20405;-82
2024/04/17 09:09:38;;;;;;;0.13;0.13;;;9.70;99.90;;;;;;5429812;26;20040;-81
2024/04/17 09:12:06;;;;;;;0.95;0.60;;;10.10;99.90;;;;;;5431781;26;20035;-83
2024/04/17 09:14:32;;;;;;;1.55;0.52;;;10.20;99.90;;;;;;5410986;26;20009;-83
2024/04/17 09:16:59;;;;;;;0.60;0.60;;;10.20;99.90;;;;;;5416173;26;20031;-82
2024/04/17 09:19:25;;;;;;;0.20;0.20;;;10.50;99.90;;;;;;5411460;26;20035;-82
2024/04/17 09:21:52;;;;;;;0.22;0.22;;;10.80;99.90;;;;;;5426747;26;20055;-82
2024/04/17 09:24:18;;;;;;;0.10;0.10;;;10.90;99.90;;;;;;5379280;26;20032;-85
2024/04/17 09:26:45;;;;;;;0.10;0.10;;;10.90;99.90;;;;;;5429773;26;20039;-81
2024/04/17 09:29:17;;;;;;;0.60;0.50;;;10.80;99.90;;;;;;5424287;26;20035;-82
2024/04/17 09:31:44;;;;;;;0.30;0.30;;;10.60;99.90;;;;;;5383096;26;20034;-84
2024/04/17 09:34:15;;;;;;;0.10;0.10;;;10.30;99.90;;;;;;5414756;26;20043;-82
2024/04/17 09:36:48;;;;;;;0.98;0.93;;;10.30;99.90;;;;;;5399860;26;20031;-81
2024/04/17 09:39:15;;;;;;;0.10;0.10;;;10.30;99.90;;;;;;5433776;26;20044;-82
2024/04/17 09:41:42;;;;;;;0.65;0.65;;;10.60;99.90;;;;;;5409148;26;20314;-79
2024/04/17 09:44:12;;;;;;;0.20;0.20;;;10.30;99.90;;;;;;5427513;26;20063;-84
2024/04/17 09:46:40;;;;;;;1.13;0.85;;;10.20;99.90;;;;;;5412936;26;20040;-80
2024/04/17 09:49:22;;;;;;;0.38;0.38;;;10.30;99.90;;;;;;5428203;26;20484;-80
2024/04/17 09:51:56;;;;;;;1.30;0.73;;;10.70;99.90;;;;;;5405869;26;20038;-83
2024/04/17 09:54:26;;;;;;;1.00;0.40;;;10.40;99.90;;;;;;5429062;26;20035;-81
2024/04/17 09:56:56;;;;;;;0.75;0.32;;;10.80;99.90;;;;;;5412049;26;20090;-82
2024/04/17 09:59:23;;;;;;;0.35;0.30;;;10.80;99.90;;;;;;5385624;26;20034;-81
2024/04/17 10:01:54;;;;;;;0.20;0.20;;;10.60;99.90;;;;;;5426409;26;20043;-81
2024/04/17 10:04:21;;;;;;;0.15;0.15;;;10.90;99.90;;;;;;5432201;26;20024;-80
2024/04/17 10:06:48;;;;;;;0.57;0.40;;;10.90;99.90;;;;;;5440208;26;20030;-82
2024/04/17 10:09:15;;;;;;;0.40;0.40;;;10.70;99.90;;;;;;5427934;26;20027;-80
2024/04/17 10:11:41;;;;;;;1.92;0.25;;;11.10;99.90;;;;;;5404825;26;20371;-82
2024/04/17 10:14:11;;;;;;;0.32;0.32;;;11.10;99.90;;;;;;5428900;26;20035;-88
2024/04/17 10:16:38;;;;;;;0.13;0.13;;;11.10;99.90;;;;;;5434166;26;20030;-82
2024/04/17 10:19:04;;;;;;;0.10;0.10;;;11.40;99.90;;;;;;5428507;26;20307;-82
2024/04/17 10:21:35;;;;;;;0.20;0.20;;;11.20;99.90;;;;;;5407351;26;20073;-76
2024/04/17 10:24:03;;;;;;;0.95;0.28;;;11.00;99.90;;;;;;5435176;26;20054;-80
2024/04/17 10:26:46;;;;;;;1.55;0.43;;;10.90;99.90;;;;;;5411448;26;20436;-80
2024/04/17 10:29:23;;;;;;;0.20;0.20;;;10.90;99.90;;;;;;5427546;26;20031;-82
2024/04/17 10:32:02;;;;;;;0.20;0.20;;;10.80;99.90;;;;;;5410291;26;20036;-84
2024/04/17 10:34:53;;;;;;;3.50;1.85;;;10.30;99.90;;;;;;5413293;26;20035;-82
2024/04/17 10:37:21;;;;;;;1.63;0.43;;;10.30;99.90;;;;;;5402651;26;20165;-82
2024/04/17 10:39:47;;;;;;;0.13;0.13;;;10.80;99.90;;;;;;5403066;26;20028;-84
2024/04/17 10:42:16;;;;;;;0.20;0.20;;;10.90;99.90;;;;;;5423717;26;20035;-81
2024/04/17 10:44:49;;;;;;;0.63;0.55;;;11.00;99.90;;;;;;5431163;26;20031;-84
2024/04/17 10:47:26;;;;;;;0.43;0.43;;;11.20;99.90;;;;;;5426297;26;20036;-81
2024/04/17 10:50:03;;;;;;;0.10;0.10;;;11.60;99.90;;;;;;5382457;26;20027;-82
2024/04/17 10:52:31;;;;;;;0.20;0.20;;;12.10;99.90;;;;;;5401463;26;20032;-82
2024/04/17 10:55:01;;;;;;;1.25;0.90;;;11.40;99.90;;;;;;5411873;26;20043;-81
2024/04/17 10:57:28;;;;;;;0.17;0.17;;;11.70;99.90;;;;;;5402832;26;20472;-83
2024/04/17 10:59:54;;;;;;;0.10;0.10;;;11.90;99.90;;;;;;5433377;26;20027;-84
2024/04/17 11:02:22;;;;;;;0.85;0.85;;;11.70;99.90;;;;;;5411601;26;20027;-80
2024/04/17 11:04:49;;;;;;;0.20;0.20;;;11.40;99.90;;;;;;5433798;26;20031;-86
2024/04/17 11:07:16;;;;;;;0.15;0.15;;;11.20;99.90;;;;;;5407950;26;20036;-81
2024/04/17 11:09:43;;;;;;;1.00;0.60;;;11.20;99.90;;;;;;5431305;26;20030;-79
2024/04/17 11:12:19;;;;;;;0.32;0.32;;;11.10;99.90;;;;;;5430633;26;20038;-85
2024/04/17 11:14:46;;;;;;;0.20;0.20;;;11.10;99.90;;;;;;5405895;26;20035;-81
2024/04/17 11:17:13;;;;;;;0.15;0.15;;;11.30;99.90;;;;;;5376633;26;20031;-81
2024/04/17 11:19:43;;;;;;;0.20;0.20;;;11.50;99.90;;;;;;5427172;26;20027;-80
2024/04/17 11:22:11;;;;;;;0.23;0.23;;;12.00;99.90;;;;;;5384831;26;20652;-82
2024/04/17 11:24:37;;;;;;;3.38;1.60;;;12.10;99.90;;;;;;5411770;26;20039;-81
2024/04/17 11:27:07;;;;;;;0.20;0.20;;;12.30;99.90;;;;;;5402892;26;20031;-83
2024/04/17 11:29:33;;;;;;;0.80;0.47;;;12.30;99.90;;;;;;5404650;26;20035;-81
2024/04/17 11:32:00;;;;;;;0.30;0.20;;;11.90;99.90;;;;;;5375040;26;20720;-78
2024/04/17 11:34:26;;;;;;;0.20;0.20;;;11.80;99.90;;;;;;5386450;26;20031;-80
2024/04/17 11:36:52;;;;;;;0.10;0.10;;;11.30;99.90;;;;;;5427259;26;20052;-82
2024/04/17 11:39:19;;;;;;;0.15;0.15;;;11.30;99.90;;;;;;5397934;26;20038;-82
2024/04/17 11:41:49;;;;;;;0.60;0.60;;;11.10;99.90;;;;;;5399040;26;20035;-84
2024/04/17 11:44:15;;;;;;;3.33;1.17;;;10.80;99.90;;;;;;5427499;26;20035;-81
2024/04/17 11:46:41;;;;;;;2.03;1.13;;;10.90;99.90;;;;;;5427704;26;20026;-88
2024/04/17 11:49:08;;;;;;;0.10;0.10;;;11.00;99.90;;;;;;5403060;26;20050;-82
2024/04/17 11:51:35;;;;;;;0.10;0.10;;;11.40;99.90;;;;;;5428388;26;20048;-83
2024/04/17 11:54:04;;;;;;;1.38;0.30;;;11.80;99.90;;;;;;5443520;26;20034;-81
2024/04/17 11:56:30;;;;;;;0.10;0.10;;;11.90;99.90;;;;;;5434967;26;20407;-86
2024/04/17 11:58:56;;;;;;;0.70;0.70;;;12.40;99.90;;;;;;5411067;26;20035;-83
2024/04/17 12:01:22;;;;;;;0.93;0.93;;;12.90;99.90;;;;;;5384425;26;20036;-83
2024/04/17 12:03:48;;;;;;;0.32;0.32;;;12.80;99.90;;;;;;5379535;26;20046;-83
2024/04/17 12:06:15;;;;;;;0.60;0.60;;;12.40;99.90;;;;;;5410451;26;20031;-86
2024/04/17 12:08:41;;;;;;;0.68;0.43;;;12.10;99.90;;;;;;5407311;26;20032;-86
2024/04/17 12:11:07;;;;;;;0.57;0.45;;;12.10;99.90;;;;;;5424449;26;20154;-83
2024/04/17 12:13:36;;;;;;;0.20;0.20;;;12.00;99.90;;;;;;5410561;26;20039;-85
2024/04/17 12:16:03;;;;;;;0.55;0.20;;;12.00;99.90;;;;;;5401573;26;20032;-85
2024/04/17 12:18:29;;;;;;;1.25;0.63;;;12.20;99.90;;;;;;5415516;26;20493;-84
2024/04/17 12:20:56;;;;;;;0.10;0.10;;;12.20;99.90;;;;;;5403397;26;20049;-83
2024/04/17 12:23:22;;;;;;;0.20;0.20;;;12.40;99.90;;;;;;5416724;26;20015;-85
2024/04/17 12:28:33;;;;;;;0.20;0.20;;;12.70;99.90;;;;;;5405723;26;20015;-84
2024/04/17 12:31:02;;;;;;;0.13;0.13;;;13.10;99.90;;;;;;5416366;26;20020;-83
2024/04/17 12:33:29;;;;;;;0.20;0.20;;;13.40;99.90;;;;;;5411340;26;20004;-83
2024/04/17 12:35:55;;;;;;;0.65;0.30;;;13.20;99.90;;;;;;5422844;26;20400;-82
2024/04/17 12:38:22;;;;;;;0.60;0.50;;;12.90;99.90;;;;;;5409254;26;20529;-86
2024/04/17 12:40:48;;;;;;;0.20;0.20;;;12.30;99.90;;;;;;5439369;26;20113;-87
2024/04/17 12:43:15;;;;;;;9.20;0.73;;;12.20;99.90;;;;;;5399749;26;20037;-83
2024/04/17 12:45:41;;;;;;;0.52;0.52;;;12.10;99.90;;;;;;5404110;26;20028;-84
2024/04/17 12:48:10;;;;;;;0.20;0.20;;;12.10;99.90;;;;;;5402830;26;20044;-84
2024/04/17 12:50:36;;;;;;;0.25;0.25;;;12.70;99.90;;;;;;5388873;26;20036;-86
2024/04/17 12:53:04;;;;;;;0.80;0.73;;;12.60;99.90;;;;;;5400626;26;20040;-83
2024/04/17 12:55:31;;;;;;;5.97;0.40;;;12.50;99.90;;;;;;5395900;26;20033;-79
2024/04/17 12:57:57;;;;;;;0.20;0.20;;;12.30;99.90;;;;;;5392981;26;20389;-82
2024/04/17 13:00:24;;;;;;;2.53;0.28;;;11.70;99.90;;;;;;5395526;26;20032;-82